Terminal Aerodrome Forecast
Issued by NWS

Home | Current Version | Previous Version | Text Only | Print | Product List | Glossary Off
Versions: 1 2 3 4 5 6 7 8 9 10 11 12 13 14 15

000
FTUS43 KICT 292300
TAFRSL
TAF
KRSL 292332Z 3000/3024 16005KT P6SM SKC
     FM300400 09007KT P6SM VCSH SCT040 BKN070
      TEMPO 3005/3009 -SHRA
     FM301200 09007KT P6SM VCSH OVC040
     FM301600 09010KT P6SM OVC060=

USA.gov is the U.S. government's official web portal to all federal, state and local government web resources and services.